Bedford, Canada
Current Conditions -  °F | °C
As of 11:16 PM on Friday 21 Nov 2014 (Local Time) from CYHZ Reporting Station
Snow Showers Snow Showers  
Wind Chill: 11°   Ceiling: 3400
Heat Index: 23°   Visibility: 15mi
Dew Point: 12°   Wind: 14mph
Humidity: 63%   Direction: 310°NW
Pressure: 29.99"   Gusts: NA
Location:  44.73°N, 63.66°W
Report Text: CYHZ 220316Z 31012KT 15SM -SHSN OVC034 M05/M11 A2999 RMK SC8 SLP164
Loading
Personal Weather Stations






























Interactive Weather Map New forecast layout! Learn more

10-Day Weather Forecast

Advertisements
Track Severe Weather on mobile